sensor_id;sensor_type;location;lat;lon;timestamp;temperature;humidity
16871;DHT22;8552;48.120;-1.456;2023-05-14T00:00:29;10.00;99.90
16871;DHT22;8552;48.120;-1.456;2023-05-14T00:02:59;10.00;99.90
16871;DHT22;8552;48.120;-1.456;2023-05-14T00:05:29;9.90;99.90
16871;DHT22;8552;48.120;-1.456;2023-05-14T00:07:59;9.90;99.90
16871;DHT22;8552;48.120;-1.456;2023-05-14T00:10:30;9.80;99.90
16871;DHT22;8552;48.120;-1.456;2023-05-14T00:13:02;9.80;99.90
16871;DHT22;8552;48.120;-1.456;2023-05-14T00:15:32;9.70;99.90
16871;DHT22;8552;48.120;-1.456;2023-05-14T00:18:02;9.70;99.90
16871;DHT22;8552;48.120;-1.456;2023-05-14T00:20:33;9.70;99.90
16871;DHT22;8552;48.120;-1.456;2023-05-14T00:23:03;9.60;99.90
16871;DHT22;8552;48.120;-1.456;2023-05-14T00:25:33;9.60;99.90
16871;DHT22;8552;48.120;-1.456;2023-05-14T00:28:08;9.60;99.90
16871;DHT22;8552;48.120;-1.456;2023-05-14T00:30:43;9.50;99.90
16871;DHT22;8552;48.120;-1.456;2023-05-14T00:33:17;9.60;99.90
16871;DHT22;8552;48.120;-1.456;2023-05-14T00:35:52;9.50;99.90
16871;DHT22;8552;48.120;-1.456;2023-05-14T00:38:25;9.60;99.90
16871;DHT22;8552;48.120;-1.456;2023-05-14T00:40:56;9.50;99.90
16871;DHT22;8552;48.120;-1.456;2023-05-14T00:43:26;9.50;99.90
16871;DHT22;8552;48.120;-1.456;2023-05-14T00:45:56;9.40;99.90
16871;DHT22;8552;48.120;-1.456;2023-05-14T00:48:30;9.40;99.90
16871;DHT22;8552;48.120;-1.456;2023-05-14T00:51:05;9.40;99.90
16871;DHT22;8552;48.120;-1.456;2023-05-14T00:53:36;9.40;99.90
16871;DHT22;8552;48.120;-1.456;2023-05-14T00:56:07;9.40;99.90
16871;DHT22;8552;48.120;-1.456;2023-05-14T00:58:38;9.40;99.90
16871;DHT22;8552;48.120;-1.456;2023-05-14T01:01:13;9.40;99.90
16871;DHT22;8552;48.120;-1.456;2023-05-14T01:03:43;9.40;99.90
16871;DHT22;8552;48.120;-1.456;2023-05-14T01:12:55;9.60;99.90
16871;DHT22;8552;48.120;-1.456;2023-05-14T01:15:25;9.70;99.90
16871;DHT22;8552;48.120;-1.456;2023-05-14T01:18:03;9.80;99.90
16871;DHT22;8552;48.120;-1.456;2023-05-14T01:20:34;9.90;99.90
16871;DHT22;8552;48.120;-1.456;2023-05-14T01:23:07;10.00;99.90
16871;DHT22;8552;48.120;-1.456;2023-05-14T01:25:40;10.10;99.90
16871;DHT22;8552;48.120;-1.456;2023-05-14T01:28:19;10.20;99.90
16871;DHT22;8552;48.120;-1.456;2023-05-14T01:31:09;10.30;99.90
16871;DHT22;8552;48.120;-1.456;2023-05-14T01:33:42;10.40;99.90
16871;DHT22;8552;48.120;-1.456;2023-05-14T01:36:13;10.50;99.90
16871;DHT22;8552;48.120;-1.456;2023-05-14T01:38:44;10.60;99.90
16871;DHT22;8552;48.120;-1.456;2023-05-14T01:41:16;10.70;99.90
16871;DHT22;8552;48.120;-1.456;2023-05-14T01:43:55;10.80;99.90
16871;DHT22;8552;48.120;-1.456;2023-05-14T01:46:31;10.90;99.90
16871;DHT22;8552;48.120;-1.456;2023-05-14T01:49:01;11.00;99.90
16871;DHT22;8552;48.120;-1.456;2023-05-14T01:51:31;11.00;99.90
16871;DHT22;8552;48.120;-1.456;2023-05-14T01:54:01;11.10;99.90
16871;DHT22;8552;48.120;-1.456;2023-05-14T01:56:37;11.10;99.90
16871;DHT22;8552;48.120;-1.456;2023-05-14T01:59:06;11.20;99.90
16871;DHT22;8552;48.120;-1.456;2023-05-14T02:01:36;11.30;99.90
16871;DHT22;8552;48.120;-1.456;2023-05-14T02:04:11;11.30;99.90
16871;DHT22;8552;48.120;-1.456;2023-05-14T02:06:44;11.40;99.90
16871;DHT22;8552;48.120;-1.456;2023-05-14T02:09:17;11.40;99.90
16871;DHT22;8552;48.120;-1.456;2023-05-14T02:11:52;11.40;99.90
16871;DHT22;8552;48.120;-1.456;2023-05-14T02:14:22;11.50;99.90
16871;DHT22;8552;48.120;-1.456;2023-05-14T02:16:53;11.50;99.90
16871;DHT22;8552;48.120;-1.456;2023-05-14T02:19:24;11.50;99.90
16871;DHT22;8552;48.120;-1.456;2023-05-14T02:21:58;11.60;99.90
16871;DHT22;8552;48.120;-1.456;2023-05-14T02:24:31;11.60;99.90
16871;DHT22;8552;48.120;-1.456;2023-05-14T02:27:02;11.60;99.90
16871;DHT22;8552;48.120;-1.456;2023-05-14T02:29:32;11.70;99.90
16871;DHT22;8552;48.120;-1.456;2023-05-14T02:32:02;11.70;99.90
16871;DHT22;8552;48.120;-1.456;2023-05-14T02:34:32;11.70;99.90
16871;DHT22;8552;48.120;-1.456;2023-05-14T02:37:06;11.70;99.90
16871;DHT22;8552;48.120;-1.456;2023-05-14T02:39:36;11.70;99.90
16871;DHT22;8552;48.120;-1.456;2023-05-14T02:42:06;11.70;99.90
16871;DHT22;8552;48.120;-1.456;2023-05-14T02:44:42;11.80;99.90
16871;DHT22;8552;48.120;-1.456;2023-05-14T02:47:12;11.80;99.90
16871;DHT22;8552;48.120;-1.456;2023-05-14T02:49:42;11.80;99.90
16871;DHT22;8552;48.120;-1.456;2023-05-14T02:52:12;11.80;99.90
16871;DHT22;8552;48.120;-1.456;2023-05-14T02:54:43;11.80;99.90
16871;DHT22;8552;48.120;-1.456;2023-05-14T02:57:16;11.80;99.90
16871;DHT22;8552;48.120;-1.456;2023-05-14T02:59:58;11.80;99.90
16871;DHT22;8552;48.120;-1.456;2023-05-14T03:02:28;11.80;99.90
16871;DHT22;8552;48.120;-1.456;2023-05-14T03:04:58;11.80;99.90
16871;DHT22;8552;48.120;-1.456;2023-05-14T03:07:28;11.80;99.90
16871;DHT22;8552;48.120;-1.456;2023-05-14T03:10:01;11.80;99.90
16871;DHT22;8552;48.120;-1.456;2023-05-14T03:12:32;11.80;99.90
16871;DHT22;8552;48.120;-1.456;2023-05-14T03:15:04;11.90;99.90
16871;DHT22;8552;48.120;-1.456;2023-05-14T03:17:33;11.80;99.90
16871;DHT22;8552;48.120;-1.456;2023-05-14T03:20:09;11.90;99.90
16871;DHT22;8552;48.120;-1.456;2023-05-14T03:22:39;11.90;99.90
16871;DHT22;8552;48.120;-1.456;2023-05-14T03:25:12;11.90;99.90
16871;DHT22;8552;48.120;-1.456;2023-05-14T03:27:53;11.90;99.90
16871;DHT22;8552;48.120;-1.456;2023-05-14T03:30:23;11.90;99.90
16871;DHT22;8552;48.120;-1.456;2023-05-14T03:33:00;11.90;99.90
16871;DHT22;8552;48.120;-1.456;2023-05-14T03:35:30;11.90;99.90
16871;DHT22;8552;48.120;-1.456;2023-05-14T03:38:00;11.90;99.90
16871;DHT22;8552;48.120;-1.456;2023-05-14T03:40:34;11.90;99.90
16871;DHT22;8552;48.120;-1.456;2023-05-14T03:43:08;11.90;99.90
16871;DHT22;8552;48.120;-1.456;2023-05-14T03:45:39;11.90;99.90
16871;DHT22;8552;48.120;-1.456;2023-05-14T03:48:09;11.90;99.90
16871;DHT22;8552;48.120;-1.456;2023-05-14T03:50:40;11.90;99.90
16871;DHT22;8552;48.120;-1.456;2023-05-14T03:53:13;11.90;99.90
16871;DHT22;8552;48.120;-1.456;2023-05-14T03:55:43;11.90;99.90
16871;DHT22;8552;48.120;-1.456;2023-05-14T03:58:16;11.90;99.90
16871;DHT22;8552;48.120;-1.456;2023-05-14T04:00:49;11.90;99.90
16871;DHT22;8552;48.120;-1.456;2023-05-14T04:03:19;11.90;99.90
16871;DHT22;8552;48.120;-1.456;2023-05-14T04:05:49;11.90;99.90
16871;DHT22;8552;48.120;-1.456;2023-05-14T04:08:24;11.90;99.90
16871;DHT22;8552;48.120;-1.456;2023-05-14T04:10:54;11.90;99.90
16871;DHT22;8552;48.120;-1.456;2023-05-14T04:13:24;11.90;99.90
16871;DHT22;8552;48.120;-1.456;2023-05-14T04:15:55;11.90;99.90
16871;DHT22;8552;48.120;-1.456;2023-05-14T04:18:24;11.90;99.90
16871;DHT22;8552;48.120;-1.456;2023-05-14T04:20:54;11.90;99.90
16871;DHT22;8552;48.120;-1.456;2023-05-14T04:23:25;11.90;99.90
16871;DHT22;8552;48.120;-1.456;2023-05-14T04:25:58;11.90;99.90
16871;DHT22;8552;48.120;-1.456;2023-05-14T04:28:28;11.90;99.90
16871;DHT22;8552;48.120;-1.456;2023-05-14T04:30:59;11.90;99.90
16871;DHT22;8552;48.120;-1.456;2023-05-14T04:33:29;11.90;99.90
16871;DHT22;8552;48.120;-1.456;2023-05-14T04:36:02;11.90;99.90
16871;DHT22;8552;48.120;-1.456;2023-05-14T04:38:33;11.90;99.90
16871;DHT22;8552;48.120;-1.456;2023-05-14T04:41:03;11.90;99.90
16871;DHT22;8552;48.120;-1.456;2023-05-14T04:43:31;11.80;99.90
16871;DHT22;8552;48.120;-1.456;2023-05-14T04:46:01;11.80;99.90
16871;DHT22;8552;48.120;-1.456;2023-05-14T04:48:32;11.90;99.90
16871;DHT22;8552;48.120;-1.456;2023-05-14T04:51:02;11.90;99.90
16871;DHT22;8552;48.120;-1.456;2023-05-14T04:53:32;11.90;99.90
16871;DHT22;8552;48.120;-1.456;2023-05-14T04:56:02;11.90;99.90
16871;DHT22;8552;48.120;-1.456;2023-05-14T04:58:37;11.90;99.90
16871;DHT22;8552;48.120;-1.456;2023-05-14T05:01:07;11.90;99.90
16871;DHT22;8552;48.120;-1.456;2023-05-14T05:03:37;11.90;99.90
16871;DHT22;8552;48.120;-1.456;2023-05-14T05:06:08;11.90;99.90
16871;DHT22;8552;48.120;-1.456;2023-05-14T05:08:38;11.90;99.90
16871;DHT22;8552;48.120;-1.456;2023-05-14T05:11:11;11.90;99.90
16871;DHT22;8552;48.120;-1.456;2023-05-14T05:13:41;11.90;99.90
16871;DHT22;8552;48.120;-1.456;2023-05-14T05:16:12;11.90;99.90
16871;DHT22;8552;48.120;-1.456;2023-05-14T05:18:42;11.90;99.90
16871;DHT22;8552;48.120;-1.456;2023-05-14T05:21:15;11.90;99.90
16871;DHT22;8552;48.120;-1.456;2023-05-14T05:23:45;11.90;99.90
16871;DHT22;8552;48.120;-1.456;2023-05-14T05:26:15;11.90;99.90
16871;DHT22;8552;48.120;-1.456;2023-05-14T05:28:53;11.90;99.90
16871;DHT22;8552;48.120;-1.456;2023-05-14T05:31:23;11.90;99.90
16871;DHT22;8552;48.120;-1.456;2023-05-14T05:33:53;11.90;99.90
16871;DHT22;8552;48.120;-1.456;2023-05-14T05:36:22;11.90;99.90
16871;DHT22;8552;48.120;-1.456;2023-05-14T05:38:51;11.90;99.90
16871;DHT22;8552;48.120;-1.456;2023-05-14T05:41:21;11.90;99.90
16871;DHT22;8552;48.120;-1.456;2023-05-14T05:43:51;11.90;99.90
16871;DHT22;8552;48.120;-1.456;2023-05-14T05:46:20;12.00;99.90
16871;DHT22;8552;48.120;-1.456;2023-05-14T05:48:50;12.00;99.90
16871;DHT22;8552;48.120;-1.456;2023-05-14T05:51:20;12.00;99.90
16871;DHT22;8552;48.120;-1.456;2023-05-14T05:53:53;12.00;99.90
16871;DHT22;8552;48.120;-1.456;2023-05-14T05:56:30;11.90;99.90
16871;DHT22;8552;48.120;-1.456;2023-05-14T05:59:03;11.90;99.90
16871;DHT22;8552;48.120;-1.456;2023-05-14T06:01:33;11.80;99.90
16871;DHT22;8552;48.120;-1.456;2023-05-14T06:04:08;11.80;99.90
16871;DHT22;8552;48.120;-1.456;2023-05-14T06:06:39;11.80;99.90
16871;DHT22;8552;48.120;-1.456;2023-05-14T06:09:09;11.80;99.90
16871;DHT22;8552;48.120;-1.456;2023-05-14T06:11:40;11.90;99.90
16871;DHT22;8552;48.120;-1.456;2023-05-14T06:14:10;12.00;99.90
16871;DHT22;8552;48.120;-1.456;2023-05-14T06:16:43;12.00;99.90
16871;DHT22;8552;48.120;-1.456;2023-05-14T06:19:13;12.00;99.90
16871;DHT22;8552;48.120;-1.456;2023-05-14T06:21:46;12.00;99.90
16871;DHT22;8552;48.120;-1.456;2023-05-14T06:24:16;11.90;99.90
16871;DHT22;8552;48.120;-1.456;2023-05-14T06:26:47;12.00;99.90
16871;DHT22;8552;48.120;-1.456;2023-05-14T06:29:17;12.00;99.90
16871;DHT22;8552;48.120;-1.456;2023-05-14T06:31:50;12.00;99.90
16871;DHT22;8552;48.120;-1.456;2023-05-14T06:34:21;11.90;99.90
16871;DHT22;8552;48.120;-1.456;2023-05-14T06:36:53;12.00;99.90
16871;DHT22;8552;48.120;-1.456;2023-05-14T06:39:26;12.00;99.90
16871;DHT22;8552;48.120;-1.456;2023-05-14T06:42:00;12.10;99.90
16871;DHT22;8552;48.120;-1.456;2023-05-14T06:44:35;12.30;99.90
16871;DHT22;8552;48.120;-1.456;2023-05-14T06:47:05;12.50;99.90
16871;DHT22;8552;48.120;-1.456;2023-05-14T06:49:38;12.60;99.90
16871;DHT22;8552;48.120;-1.456;2023-05-14T06:52:10;12.60;99.90
16871;DHT22;8552;48.120;-1.456;2023-05-14T06:54:39;12.70;99.90
16871;DHT22;8552;48.120;-1.456;2023-05-14T06:57:09;12.60;99.90
16871;DHT22;8552;48.120;-1.456;2023-05-14T06:59:42;12.60;99.90
16871;DHT22;8552;48.120;-1.456;2023-05-14T07:02:17;12.70;99.90
16871;DHT22;8552;48.120;-1.456;2023-05-14T07:04:51;12.70;99.90
16871;DHT22;8552;48.120;-1.456;2023-05-14T07:07:23;12.80;99.90
16871;DHT22;8552;48.120;-1.456;2023-05-14T07:09:53;12.90;99.90
16871;DHT22;8552;48.120;-1.456;2023-05-14T07:12:23;13.10;99.90
16871;DHT22;8552;48.120;-1.456;2023-05-14T07:14:52;13.30;99.90
16871;DHT22;8552;48.120;-1.456;2023-05-14T07:17:24;13.40;99.90
16871;DHT22;8552;48.120;-1.456;2023-05-14T07:19:54;13.50;99.90
16871;DHT22;8552;48.120;-1.456;2023-05-14T07:22:24;13.50;99.90
16871;DHT22;8552;48.120;-1.456;2023-05-14T07:24:54;13.40;99.90
16871;DHT22;8552;48.120;-1.456;2023-05-14T07:27:29;13.50;99.90
16871;DHT22;8552;48.120;-1.456;2023-05-14T07:30:03;13.80;99.90
16871;DHT22;8552;48.120;-1.456;2023-05-14T07:32:33;13.90;99.90
16871;DHT22;8552;48.120;-1.456;2023-05-14T07:35:03;13.90;99.90
16871;DHT22;8552;48.120;-1.456;2023-05-14T07:37:33;14.10;99.90
16871;DHT22;8552;48.120;-1.456;2023-05-14T07:40:05;14.10;99.90
16871;DHT22;8552;48.120;-1.456;2023-05-14T07:42:36;14.10;99.90
16871;DHT22;8552;48.120;-1.456;2023-05-14T07:45:06;14.20;99.90
16871;DHT22;8552;48.120;-1.456;2023-05-14T07:47:34;14.20;99.90
16871;DHT22;8552;48.120;-1.456;2023-05-14T07:50:02;14.10;99.90
16871;DHT22;8552;48.120;-1.456;2023-05-14T07:52:30;14.20;99.90
16871;DHT22;8552;48.120;-1.456;2023-05-14T07:54:59;14.10;99.90
16871;DHT22;8552;48.120;-1.456;2023-05-14T07:57:28;14.20;99.90
16871;DHT22;8552;48.120;-1.456;2023-05-14T07:59:57;14.20;99.90
16871;DHT22;8552;48.120;-1.456;2023-05-14T08:02:27;14.40;99.90
16871;DHT22;8552;48.120;-1.456;2023-05-14T08:04:56;14.40;99.90
16871;DHT22;8552;48.120;-1.456;2023-05-14T08:07:30;14.50;99.90
16871;DHT22;8552;48.120;-1.456;2023-05-14T08:10:01;14.70;99.90
16871;DHT22;8552;48.120;-1.456;2023-05-14T08:12:37;14.80;99.90
16871;DHT22;8552;48.120;-1.456;2023-05-14T08:15:07;14.80;99.90
16871;DHT22;8552;48.120;-1.456;2023-05-14T08:17:37;14.80;99.90
16871;DHT22;8552;48.120;-1.456;2023-05-14T08:20:08;14.50;99.90
16871;DHT22;8552;48.120;-1.456;2023-05-14T08:22:39;14.70;99.90
16871;DHT22;8552;48.120;-1.456;2023-05-14T08:25:08;14.60;99.90
16871;DHT22;8552;48.120;-1.456;2023-05-14T08:27:37;14.90;99.90
16871;DHT22;8552;48.120;-1.456;2023-05-14T08:30:10;15.00;99.90
16871;DHT22;8552;48.120;-1.456;2023-05-14T08:32:40;15.20;99.90
16871;DHT22;8552;48.120;-1.456;2023-05-14T08:35:11;15.10;99.90
16871;DHT22;8552;48.120;-1.456;2023-05-14T08:37:44;15.10;99.90
16871;DHT22;8552;48.120;-1.456;2023-05-14T08:40:15;15.40;99.90
16871;DHT22;8552;48.120;-1.456;2023-05-14T08:42:45;15.20;99.90
16871;DHT22;8552;48.120;-1.456;2023-05-14T08:45:26;15.50;99.90
16871;DHT22;8552;48.120;-1.456;2023-05-14T08:47:59;15.80;99.90
16871;DHT22;8552;48.120;-1.456;2023-05-14T08:50:29;15.60;99.90
16871;DHT22;8552;48.120;-1.456;2023-05-14T08:53:03;15.90;99.90
16871;DHT22;8552;48.120;-1.456;2023-05-14T08:55:34;16.00;99.90
16871;DHT22;8552;48.120;-1.456;2023-05-14T08:58:09;16.00;99.90
16871;DHT22;8552;48.120;-1.456;2023-05-14T09:00:41;16.00;99.90
16871;DHT22;8552;48.120;-1.456;2023-05-14T09:03:11;16.20;99.90
16871;DHT22;8552;48.120;-1.456;2023-05-14T09:05:42;16.30;99.90
16871;DHT22;8552;48.120;-1.456;2023-05-14T09:08:11;16.60;99.90
16871;DHT22;8552;48.120;-1.456;2023-05-14T09:10:40;16.50;99.90
16871;DHT22;8552;48.120;-1.456;2023-05-14T09:13:12;16.70;99.90
16871;DHT22;8552;48.120;-1.456;2023-05-14T09:15:48;16.70;99.90
16871;DHT22;8552;48.120;-1.456;2023-05-14T09:18:26;16.70;99.90
16871;DHT22;8552;48.120;-1.456;2023-05-14T09:21:05;17.00;99.90
16871;DHT22;8552;48.120;-1.456;2023-05-14T09:23:42;17.20;99.90
16871;DHT22;8552;48.120;-1.456;2023-05-14T09:26:17;17.30;99.90
16871;DHT22;8552;48.120;-1.456;2023-05-14T09:28:48;17.20;99.90
16871;DHT22;8552;48.120;-1.456;2023-05-14T09:31:22;17.20;99.90
16871;DHT22;8552;48.120;-1.456;2023-05-14T09:33:55;17.30;99.90
16871;DHT22;8552;48.120;-1.456;2023-05-14T09:36:27;17.40;99.90
16871;DHT22;8552;48.120;-1.456;2023-05-14T09:38:58;17.50;99.90
16871;DHT22;8552;48.120;-1.456;2023-05-14T09:41:31;17.60;99.90
16871;DHT22;8552;48.120;-1.456;2023-05-14T09:44:01;17.40;99.90
16871;DHT22;8552;48.120;-1.456;2023-05-14T09:46:42;17.30;99.90
16871;DHT22;8552;48.120;-1.456;2023-05-14T09:49:20;17.20;99.90
16871;DHT22;8552;48.120;-1.456;2023-05-14T09:51:55;16.80;99.90
16871;DHT22;8552;48.120;-1.456;2023-05-14T09:54:26;17.00;99.90
16871;DHT22;8552;48.120;-1.456;2023-05-14T09:56:56;17.40;99.90
16871;DHT22;8552;48.120;-1.456;2023-05-14T09:59:26;17.60;99.90
16871;DHT22;8552;48.120;-1.456;2023-05-14T10:01:58;17.60;99.90
16871;DHT22;8552;48.120;-1.456;2023-05-14T10:04:29;17.50;99.90
16871;DHT22;8552;48.120;-1.456;2023-05-14T10:07:03;17.20;99.90
16871;DHT22;8552;48.120;-1.456;2023-05-14T10:09:39;17.40;99.90
16871;DHT22;8552;48.120;-1.456;2023-05-14T10:12:10;17.60;99.90
16871;DHT22;8552;48.120;-1.456;2023-05-14T10:14:47;17.30;99.90
16871;DHT22;8552;48.120;-1.456;2023-05-14T10:17:24;17.50;99.90
16871;DHT22;8552;48.120;-1.456;2023-05-14T10:19:56;17.80;99.90
16871;DHT22;8552;48.120;-1.456;2023-05-14T10:22:32;18.20;99.90
16871;DHT22;8552;48.120;-1.456;2023-05-14T10:25:07;18.20;99.90
16871;DHT22;8552;48.120;-1.456;2023-05-14T10:27:42;18.30;99.90
16871;DHT22;8552;48.120;-1.456;2023-05-14T10:30:17;18.40;99.90
16871;DHT22;8552;48.120;-1.456;2023-05-14T10:33:16;18.80;99.90
16871;DHT22;8552;48.120;-1.456;2023-05-14T10:36:03;18.90;99.90
16871;DHT22;8552;48.120;-1.456;2023-05-14T10:38:38;18.70;99.90
16871;DHT22;8552;48.120;-1.456;2023-05-14T10:41:18;19.00;99.90
16871;DHT22;8552;48.120;-1.456;2023-05-14T10:43:50;19.60;99.90
16871;DHT22;8552;48.120;-1.456;2023-05-14T10:46:20;19.10;99.90
16871;DHT22;8552;48.120;-1.456;2023-05-14T10:48:53;18.60;99.90
16871;DHT22;8552;48.120;-1.456;2023-05-14T10:51:23;18.50;99.90
16871;DHT22;8552;48.120;-1.456;2023-05-14T10:53:53;19.10;99.90
16871;DHT22;8552;48.120;-1.456;2023-05-14T10:56:28;19.70;99.90
16871;DHT22;8552;48.120;-1.456;2023-05-14T10:59:07;20.30;99.90
16871;DHT22;8552;48.120;-1.456;2023-05-14T11:01:39;19.80;99.90
16871;DHT22;8552;48.120;-1.456;2023-05-14T11:04:14;20.30;99.90
16871;DHT22;8552;48.120;-1.456;2023-05-14T11:06:47;20.90;99.90
16871;DHT22;8552;48.120;-1.456;2023-05-14T11:09:18;20.30;99.90
16871;DHT22;8552;48.120;-1.456;2023-05-14T11:11:52;20.20;99.90
16871;DHT22;8552;48.120;-1.456;2023-05-14T11:14:23;20.80;99.90
16871;DHT22;8552;48.120;-1.456;2023-05-14T11:16:53;21.10;99.90
16871;DHT22;8552;48.120;-1.456;2023-05-14T11:19:29;21.20;99.90
16871;DHT22;8552;48.120;-1.456;2023-05-14T11:22:04;21.40;99.90
16871;DHT22;8552;48.120;-1.456;2023-05-14T11:24:35;21.30;99.90
16871;DHT22;8552;48.120;-1.456;2023-05-14T11:27:09;21.70;99.90
16871;DHT22;8552;48.120;-1.456;2023-05-14T11:29:48;22.10;99.90
16871;DHT22;8552;48.120;-1.456;2023-05-14T11:32:19;21.80;99.90
16871;DHT22;8552;48.120;-1.456;2023-05-14T11:34:50;22.00;99.90
16871;DHT22;8552;48.120;-1.456;2023-05-14T11:37:23;22.00;99.90
16871;DHT22;8552;48.120;-1.456;2023-05-14T11:39:54;21.80;99.90
16871;DHT22;8552;48.120;-1.456;2023-05-14T11:42:26;21.90;99.90
16871;DHT22;8552;48.120;-1.456;2023-05-14T11:44:59;22.10;99.90
16871;DHT22;8552;48.120;-1.456;2023-05-14T11:47:29;22.30;99.90
16871;DHT22;8552;48.120;-1.456;2023-05-14T11:50:07;22.60;99.90
16871;DHT22;8552;48.120;-1.456;2023-05-14T11:52:39;22.70;99.90
16871;DHT22;8552;48.120;-1.456;2023-05-14T11:55:17;22.60;99.90
16871;DHT22;8552;48.120;-1.456;2023-05-14T11:57:53;22.90;99.90
16871;DHT22;8552;48.120;-1.456;2023-05-14T12:00:28;23.10;99.90
16871;DHT22;8552;48.120;-1.456;2023-05-14T12:03:03;23.30;99.90
16871;DHT22;8552;48.120;-1.456;2023-05-14T12:05:32;23.30;99.90
16871;DHT22;8552;48.120;-1.456;2023-05-14T12:08:02;23.50;99.90
16871;DHT22;8552;48.120;-1.456;2023-05-14T12:10:42;23.40;99.90
16871;DHT22;8552;48.120;-1.456;2023-05-14T12:13:09;23.50;99.90
16871;DHT22;8552;48.120;-1.456;2023-05-14T12:15:54;23.50;99.90
16871;DHT22;8552;48.120;-1.456;2023-05-14T12:18:34;23.60;99.90
16871;DHT22;8552;48.120;-1.456;2023-05-14T12:21:07;23.70;99.80
16871;DHT22;8552;48.120;-1.456;2023-05-14T12:23:39;23.80;99.90
16871;DHT22;8552;48.120;-1.456;2023-05-14T12:26:11;23.90;99.70
16871;DHT22;8552;48.120;-1.456;2023-05-14T12:28:48;24.00;99.30
16871;DHT22;8552;48.120;-1.456;2023-05-14T12:31:26;24.20;99.00
16871;DHT22;8552;48.120;-1.456;2023-05-14T12:33:56;24.00;99.90
16871;DHT22;8552;48.120;-1.456;2023-05-14T12:36:29;23.70;99.90
16871;DHT22;8552;48.120;-1.456;2023-05-14T12:39:02;23.90;99.30
16871;DHT22;8552;48.120;-1.456;2023-05-14T12:41:40;24.20;99.20
16871;DHT22;8552;48.120;-1.456;2023-05-14T12:44:17;24.30;98.80
16871;DHT22;8552;48.120;-1.456;2023-05-14T12:46:54;24.10;97.50
16871;DHT22;8552;48.120;-1.456;2023-05-14T12:49:30;24.10;99.90
16871;DHT22;8552;48.120;-1.456;2023-05-14T12:52:00;24.00;99.90
16871;DHT22;8552;48.120;-1.456;2023-05-14T12:54:30;24.30;99.40
16871;DHT22;8552;48.120;-1.456;2023-05-14T12:57:00;24.20;98.60
16871;DHT22;8552;48.120;-1.456;2023-05-14T12:59:32;24.40;98.60
16871;DHT22;8552;48.120;-1.456;2023-05-14T13:02:03;24.10;98.20
16871;DHT22;8552;48.120;-1.456;2023-05-14T13:04:33;24.20;99.90
16871;DHT22;8552;48.120;-1.456;2023-05-14T13:07:09;24.70;98.70
16871;DHT22;8552;48.120;-1.456;2023-05-14T13:09:39;23.90;98.20
16871;DHT22;8552;48.120;-1.456;2023-05-14T13:12:09;24.50;98.70
16871;DHT22;8552;48.120;-1.456;2023-05-14T13:14:39;24.60;96.00
16871;DHT22;8552;48.120;-1.456;2023-05-14T13:17:09;24.40;96.10
16871;DHT22;8552;48.120;-1.456;2023-05-14T13:19:41;24.70;94.80
16871;DHT22;8552;48.120;-1.456;2023-05-14T13:22:10;24.70;93.80
16871;DHT22;8552;48.120;-1.456;2023-05-14T13:24:39;24.80;95.80
16871;DHT22;8552;48.120;-1.456;2023-05-14T13:27:10;24.90;94.50
16871;DHT22;8552;48.120;-1.456;2023-05-14T13:29:40;24.80;96.60
16871;DHT22;8552;48.120;-1.456;2023-05-14T13:32:15;25.10;96.10
16871;DHT22;8552;48.120;-1.456;2023-05-14T13:34:49;25.30;93.50
16871;DHT22;8552;48.120;-1.456;2023-05-14T13:37:19;24.90;93.70
16871;DHT22;8552;48.120;-1.456;2023-05-14T13:39:49;25.30;95.50
16871;DHT22;8552;48.120;-1.456;2023-05-14T13:42:22;24.80;95.10
16871;DHT22;8552;48.120;-1.456;2023-05-14T13:44:50;25.20;96.10
16871;DHT22;8552;48.120;-1.456;2023-05-14T13:47:21;24.80;94.80
16871;DHT22;8552;48.120;-1.456;2023-05-14T13:49:53;25.20;95.50
16871;DHT22;8552;48.120;-1.456;2023-05-14T13:52:22;25.40;95.20
16871;DHT22;8552;48.120;-1.456;2023-05-14T13:54:56;25.50;93.50
16871;DHT22;8552;48.120;-1.456;2023-05-14T13:57:25;25.70;95.20
16871;DHT22;8552;48.120;-1.456;2023-05-14T13:59:53;25.70;93.40
16871;DHT22;8552;48.120;-1.456;2023-05-14T14:02:22;25.10;93.40
16871;DHT22;8552;48.120;-1.456;2023-05-14T14:04:51;25.10;93.00
16871;DHT22;8552;48.120;-1.456;2023-05-14T14:07:20;25.40;94.80
16871;DHT22;8552;48.120;-1.456;2023-05-14T14:09:51;25.70;93.40
16871;DHT22;8552;48.120;-1.456;2023-05-14T14:12:21;25.90;93.00
16871;DHT22;8552;48.120;-1.456;2023-05-14T14:14:50;26.00;94.00
16871;DHT22;8552;48.120;-1.456;2023-05-14T14:17:20;26.30;93.80
16871;DHT22;8552;48.120;-1.456;2023-05-14T14:19:50;26.40;89.40
16871;DHT22;8552;48.120;-1.456;2023-05-14T14:22:19;26.20;89.00
16871;DHT22;8552;48.120;-1.456;2023-05-14T14:24:49;26.20;87.00
16871;DHT22;8552;48.120;-1.456;2023-05-14T14:27:18;26.40;88.70
16871;DHT22;8552;48.120;-1.456;2023-05-14T14:29:50;26.40;86.90
16871;DHT22;8552;48.120;-1.456;2023-05-14T14:32:19;26.20;83.70
16871;DHT22;8552;48.120;-1.456;2023-05-14T14:34:50;26.10;83.90
16871;DHT22;8552;48.120;-1.456;2023-05-14T14:37:20;26.00;82.50
16871;DHT22;8552;48.120;-1.456;2023-05-14T14:39:49;26.10;79.80
16871;DHT22;8552;48.120;-1.456;2023-05-14T14:42:19;25.80;77.40
16871;DHT22;8552;48.120;-1.456;2023-05-14T14:44:52;25.60;80.10
16871;DHT22;8552;48.120;-1.456;2023-05-14T14:47:21;25.60;84.50
16871;DHT22;8552;48.120;-1.456;2023-05-14T14:49:51;25.60;80.10
16871;DHT22;8552;48.120;-1.456;2023-05-14T14:52:22;25.30;80.20
16871;DHT22;8552;48.120;-1.456;2023-05-14T14:54:52;25.10;84.60
16871;DHT22;8552;48.120;-1.456;2023-05-14T14:57:23;25.40;82.00
16871;DHT22;8552;48.120;-1.456;2023-05-14T14:59:57;25.30;85.80
16871;DHT22;8552;48.120;-1.456;2023-05-14T15:02:27;25.40;84.70
16871;DHT22;8552;48.120;-1.456;2023-05-14T15:04:57;25.20;85.20
16871;DHT22;8552;48.120;-1.456;2023-05-14T15:07:27;25.40;87.40
16871;DHT22;8552;48.120;-1.456;2023-05-14T15:09:59;25.20;88.10
16871;DHT22;8552;48.120;-1.456;2023-05-14T15:12:29;25.10;88.00
16871;DHT22;8552;48.120;-1.456;2023-05-14T15:14:58;25.00;89.50
16871;DHT22;8552;48.120;-1.456;2023-05-14T15:17:32;25.40;86.10
16871;DHT22;8552;48.120;-1.456;2023-05-14T15:20:02;25.50;85.80
16871;DHT22;8552;48.120;-1.456;2023-05-14T15:22:34;25.60;84.30
16871;DHT22;8552;48.120;-1.456;2023-05-14T15:25:05;25.70;87.50
16871;DHT22;8552;48.120;-1.456;2023-05-14T15:27:35;25.60;84.30
16871;DHT22;8552;48.120;-1.456;2023-05-14T15:30:07;25.10;82.60
16871;DHT22;8552;48.120;-1.456;2023-05-14T15:32:37;25.00;85.30
16871;DHT22;8552;48.120;-1.456;2023-05-14T15:35:06;24.70;86.30
16871;DHT22;8552;48.120;-1.456;2023-05-14T15:37:42;24.80;88.20
16871;DHT22;8552;48.120;-1.456;2023-05-14T15:40:13;24.70;87.40
16871;DHT22;8552;48.120;-1.456;2023-05-14T15:42:44;24.80;89.30
16871;DHT22;8552;48.120;-1.456;2023-05-14T15:45:23;24.60;86.60
16871;DHT22;8552;48.120;-1.456;2023-05-14T15:47:58;24.40;88.50
16871;DHT22;8552;48.120;-1.456;2023-05-14T15:50:35;24.30;90.40
16871;DHT22;8552;48.120;-1.456;2023-05-14T15:53:06;24.20;91.00
16871;DHT22;8552;48.120;-1.456;2023-05-14T15:55:35;24.30;90.60
16871;DHT22;8552;48.120;-1.456;2023-05-14T15:58:04;24.10;90.40
16871;DHT22;8552;48.120;-1.456;2023-05-14T16:00:34;24.10;90.70
16871;DHT22;8552;48.120;-1.456;2023-05-14T16:03:05;23.90;90.00
16871;DHT22;8552;48.120;-1.456;2023-05-14T16:05:34;23.80;85.20
16871;DHT22;8552;48.120;-1.456;2023-05-14T16:08:04;23.80;85.40